createdAt,value
2023-01-17T00:02:19.338Z,95818.53
2023-01-17T00:05:04.053Z,95816.19
2023-01-17T00:07:46.250Z,95811.63
2023-01-17T00:10:17.621Z,95820.50
2023-01-17T00:12:49.712Z,95817.63
2023-01-17T00:15:20.450Z,95819.09
2023-01-17T00:17:50.697Z,95815.53
2023-01-17T00:20:38.794Z,95811.63
2023-01-17T00:23:21.975Z,95820.06
2023-01-17T00:26:06.546Z,95833.25
2023-01-17T00:28:35.353Z,95834.03
2023-01-17T00:31:03.841Z,95840.66
2023-01-17T00:33:31.091Z,95835.25
2023-01-17T00:36:01.496Z,95846.56
2023-01-17T00:38:30.393Z,95849.53
2023-01-17T00:41:02.598Z,95842.53
2023-01-17T00:43:45.553Z,95845.53
2023-01-17T00:46:27.652Z,95830.59
2023-01-17T00:49:09.786Z,95839.06
2023-01-17T00:51:54.732Z,95828.34
2023-01-17T00:54:36.956Z,95837.72
2023-01-17T00:57:19.934Z,95841.13
2023-01-17T01:00:02.328Z,95843.53
2023-01-17T01:02:44.818Z,95844.72
2023-01-17T01:05:27.998Z,95847.63
2023-01-17T01:08:13.227Z,95843.97
2023-01-17T01:10:55.343Z,95840.47
2023-01-17T01:13:38.746Z,95828.31
2023-01-17T01:16:21.236Z,95826.25
2023-01-17T01:19:03.929Z,95830.88
2023-01-17T01:21:46.189Z,95838.47
2023-01-17T01:24:31.393Z,95841.38
2023-01-17T01:27:13.548Z,95849.22
2023-01-17T01:29:55.682Z,95853.97
2023-01-17T01:32:38.032Z,95864.88
2023-01-17T01:35:08.328Z,95862.19
2023-01-17T01:37:37.834Z,95861.75
2023-01-17T01:40:12.019Z,95870.03
2023-01-17T01:42:51.223Z,95864.56
2023-01-17T01:45:23.071Z,95854.50
2023-01-17T01:47:56.743Z,95852.81
2023-01-17T01:50:26.506Z,95855.63
2023-01-17T01:53:01.527Z,95869.03
2023-01-17T01:55:37.333Z,95876.03
2023-01-17T01:58:11.252Z,95880.44
2023-01-17T02:00:43.236Z,95888.03
2023-01-17T02:03:17.334Z,95890.25
2023-01-17T02:05:47.278Z,95900.25
2023-01-17T02:08:19.740Z,95894.75
2023-01-17T02:10:52.512Z,95905.81
2023-01-17T02:13:23.467Z,95903.25
2023-01-17T02:16:04.417Z,95922.31
2023-01-17T02:18:45.106Z,95924.03
2023-01-17T02:21:25.216Z,95929.44
2023-01-17T02:24:28.922Z,95934.59
2023-01-17T02:27:14.283Z,95942.81
2023-01-17T02:30:16.527Z,95945.63
2023-01-17T02:32:56.059Z,95956.84
2023-01-17T02:35:36.268Z,95965.06
2023-01-17T02:38:17.209Z,95962.25
2023-01-17T02:40:50.409Z,95972.38
2023-01-17T02:43:21.610Z,95972.66
2023-01-17T02:45:51.138Z,95973.06
2023-01-17T02:48:27.319Z,95974.84
2023-01-17T02:51:22.998Z,95990.78
2023-01-17T02:54:06.219Z,95991.25
2023-01-17T02:56:49.276Z,95990.47
2023-01-17T02:59:33.334Z,95987.97
2023-01-17T03:02:17.312Z,95999.78
2023-01-17T03:04:55.089Z,95994.50
2023-01-17T03:07:28.692Z,95989.88
2023-01-17T03:10:01.933Z,95985.38
2023-01-17T03:12:32.399Z,95981.09
2023-01-17T03:15:02.186Z,95980.50
2023-01-17T03:17:35.096Z,95995.69
2023-01-17T03:20:08.169Z,96011.13
2023-01-17T03:22:37.676Z,96008.69
2023-01-17T03:25:08.295Z,96008.31
2023-01-17T03:27:37.955Z,96019.72
2023-01-17T03:30:09.208Z,96011.53
2023-01-17T03:32:38.714Z,96019.50
2023-01-17T03:35:12.271Z,96030.03
2023-01-17T03:37:42.262Z,96040.34
2023-01-17T03:40:13.164Z,96035.94
2023-01-17T03:42:45.783Z,96028.53
2023-01-17T03:45:15.344Z,96019.91
2023-01-17T03:47:45.069Z,96017.41
2023-01-17T03:50:17.382Z,96022.91
2023-01-17T03:52:49.016Z,96018.31
2023-01-17T03:55:18.841Z,96014.19
2023-01-17T03:57:48.445Z,96015.91
2023-01-17T04:00:18.720Z,96022.91
2023-01-17T04:02:48.295Z,96024.50
2023-01-17T04:05:20.507Z,96032.13
2023-01-17T04:07:51.706Z,96028.03
2023-01-17T04:10:21.630Z,96028.03
2023-01-17T04:12:51.163Z,96040.75
2023-01-17T04:15:21.382Z,96031.69
2023-01-17T04:17:51.002Z,96031.22
2023-01-17T04:20:31.963Z,96031.50
2023-01-17T04:23:01.784Z,96037.94
2023-01-17T04:25:32.127Z,96042.50
2023-01-17T04:28:04.344Z,96044.34
2023-01-17T04:30:35.339Z,96051.34
2023-01-17T04:33:05.294Z,96043.63
2023-01-17T04:35:37.399Z,96050.31
2023-01-17T04:38:07.137Z,96063.34
2023-01-17T04:40:36.722Z,96062.16
2023-01-17T04:43:06.262Z,96057.31
2023-01-17T04:45:35.788Z,96049.44
2023-01-17T04:48:06.282Z,96051.44
2023-01-17T04:50:38.385Z,96051.13
2023-01-17T04:53:08.242Z,96070.75
2023-01-17T04:55:37.758Z,96069.44
2023-01-17T04:58:07.290Z,96073.53
2023-01-17T05:00:36.810Z,96073.16
2023-01-17T05:03:07.262Z,96078.16
2023-01-17T05:05:39.385Z,96077.97
2023-01-17T05:08:08.890Z,96079.75
2023-01-17T05:10:38.478Z,96078.56
2023-01-17T05:13:08.100Z,96088.25
2023-01-17T05:15:39.128Z,96091.56
2023-01-17T05:18:09.084Z,96100.44
2023-01-17T05:20:41.546Z,96120.75
2023-01-17T05:23:11.625Z,96136.97
2023-01-17T05:25:44.821Z,96140.91
2023-01-17T05:28:15.609Z,96152.59
2023-01-17T05:30:45.203Z,96158.00
2023-01-17T05:33:14.773Z,96148.22
2023-01-17T05:35:46.915Z,96158.13
2023-01-17T05:38:16.437Z,96159.03
2023-01-17T05:40:45.989Z,96171.34
2023-01-17T05:43:15.693Z,96177.41
2023-01-17T05:45:45.205Z,96178.03
2023-01-17T05:48:14.768Z,96197.25
2023-01-17T05:50:46.959Z,96200.28
2023-01-17T05:53:19.184Z,96211.84
2023-01-17T05:55:49.715Z,96221.53
2023-01-17T05:58:21.062Z,96237.38
2023-01-17T06:00:51.788Z,96236.78
2023-01-17T06:03:21.472Z,96241.81
2023-01-17T06:05:53.536Z,96240.56
2023-01-17T06:08:23.596Z,96249.84
2023-01-17T06:10:53.187Z,96253.34
2023-01-17T06:13:23.276Z,96261.97
2023-01-17T06:15:52.837Z,96260.25
2023-01-17T06:18:22.439Z,96277.78
2023-01-17T06:20:57.963Z,96281.59
2023-01-17T06:23:28.347Z,96280.34
2023-01-17T06:25:58.113Z,96281.00
2023-01-17T06:28:27.621Z,96273.91
2023-01-17T06:30:57.154Z,96276.78
2023-01-17T06:33:26.806Z,96284.56
2023-01-17T06:35:58.950Z,96297.78
2023-01-17T06:38:30.020Z,96301.53
2023-01-17T06:41:00.667Z,96308.09
2023-01-17T06:43:33.727Z,96299.75
2023-01-17T06:46:03.368Z,96310.75
2023-01-17T06:48:33.044Z,96321.53
2023-01-17T06:51:05.166Z,96325.28
2023-01-17T06:53:34.721Z,96338.19
2023-01-17T06:56:04.315Z,96337.09
2023-01-17T06:58:34.092Z,96346.97
2023-01-17T07:01:09.190Z,96348.53
2023-01-17T07:03:38.845Z,96360.00
2023-01-17T07:06:11.825Z,96364.84
2023-01-17T07:08:41.405Z,96362.50
2023-01-17T07:11:11.079Z,96364.97
2023-01-17T07:13:41.177Z,96378.41
2023-01-17T07:16:11.540Z,96378.41
2023-01-17T07:18:41.075Z,96384.34
2023-01-17T07:21:17.837Z,96399.81
2023-01-17T07:23:48.227Z,96408.56
2023-01-17T07:26:20.635Z,96407.66
2023-01-17T07:28:50.227Z,96417.00
2023-01-17T07:31:19.821Z,96430.09
2023-01-17T07:33:49.354Z,96434.00
2023-01-17T07:36:21.494Z,96440.66
2023-01-17T07:38:51.053Z,96450.44
2023-01-17T07:41:20.623Z,96455.81
2023-01-17T07:43:50.215Z,96459.53
2023-01-17T07:46:20.178Z,96460.03
2023-01-17T07:48:49.687Z,96473.47
2023-01-17T07:51:22.020Z,96476.44
2023-01-17T07:53:51.566Z,96471.78
2023-01-17T07:56:21.162Z,96484.13
2023-01-17T07:58:50.728Z,96482.34
2023-01-17T08:01:20.425Z,96490.09
2023-01-17T08:03:54.961Z,96487.69
2023-01-17T08:06:29.313Z,96479.81
2023-01-17T08:08:59.587Z,96484.69
2023-01-17T08:11:29.302Z,96485.63
2023-01-17T08:14:00.161Z,96485.94
2023-01-17T08:16:30.730Z,96471.47
2023-01-17T08:19:00.599Z,96486.44
2023-01-17T08:21:32.740Z,96481.06
2023-01-17T08:24:02.388Z,96476.44
2023-01-17T08:26:31.907Z,96481.47
2023-01-17T08:29:03.342Z,96485.66
2023-01-17T08:31:36.751Z,96489.88
2023-01-17T08:34:06.664Z,96495.09
2023-01-17T08:36:38.746Z,96496.84
2023-01-17T08:39:08.465Z,96498.28
2023-01-17T08:41:38.576Z,96505.72
2023-01-17T08:44:08.352Z,96497.16
2023-01-17T08:46:40.990Z,96496.13
2023-01-17T08:49:13.449Z,96499.38
2023-01-17T08:51:45.651Z,96497.28
2023-01-17T08:54:15.532Z,96498.22
2023-01-17T08:56:47.002Z,96502.97
2023-01-17T08:59:16.764Z,96508.69
2023-01-17T09:01:46.429Z,96510.16
2023-01-17T09:04:16.713Z,96517.97
2023-01-17T09:06:49.054Z,96517.59
2023-01-17T09:09:19.349Z,96520.84
2023-01-17T09:11:48.861Z,96529.00
2023-01-17T09:14:18.592Z,96530.38
2023-01-17T09:16:48.617Z,96537.72
2023-01-17T09:19:18.646Z,96538.13
2023-01-17T09:21:50.748Z,96537.81
2023-01-17T09:24:20.281Z,96537.94
2023-01-17T09:26:49.811Z,96539.06
2023-01-17T09:29:20.434Z,96555.91
2023-01-17T09:31:50.002Z,96558.66
2023-01-17T09:34:19.956Z,96562.34
2023-01-17T09:36:52.060Z,96569.59
2023-01-17T09:39:21.651Z,96569.47
2023-01-17T09:41:57.386Z,96578.50
2023-01-17T09:44:28.733Z,96570.78
2023-01-17T09:47:01.624Z,96578.44
2023-01-17T09:49:38.278Z,96583.28
2023-01-17T09:52:13.813Z,96581.50
2023-01-17T09:54:45.278Z,96588.13
2023-01-17T09:57:39.092Z,96594.56
2023-01-17T10:00:24.425Z,96580.00
2023-01-17T10:03:06.179Z,96577.69
2023-01-17T10:05:49.037Z,96580.84
2023-01-17T10:08:33.364Z,96585.31
2023-01-17T10:11:20.647Z,96582.00
2023-01-17T10:14:01.097Z,96585.94
2023-01-17T10:16:43.278Z,96580.81
2023-01-17T10:19:30.676Z,96577.41
2023-01-17T10:22:31.161Z,96588.47
2023-01-17T10:25:17.759Z,96588.94
2023-01-17T10:27:54.136Z,96595.66
2023-01-17T10:30:26.939Z,96583.47
2023-01-17T10:32:59.434Z,96585.38
2023-01-17T10:35:33.419Z,96580.53
2023-01-17T10:38:08.644Z,96587.47
2023-01-17T10:40:45.330Z,96581.22
2023-01-17T10:43:24.835Z,96588.81
2023-01-17T10:45:56.336Z,96587.28
2023-01-17T10:48:38.007Z,96591.31
2023-01-17T10:51:24.771Z,96588.47
2023-01-17T10:54:10.486Z,96584.22
2023-01-17T10:56:43.542Z,96579.13
2023-01-17T10:59:21.413Z,96589.09
2023-01-17T11:01:51.407Z,96589.63
2023-01-17T11:04:24.142Z,96592.75
2023-01-17T11:07:14.744Z,96582.25
2023-01-17T11:09:46.356Z,96572.34
2023-01-17T11:12:27.609Z,96586.09
2023-01-17T11:15:04.602Z,96583.13
2023-01-17T11:17:35.450Z,96588.03
2023-01-17T11:20:20.154Z,96588.53
2023-01-17T11:23:08.520Z,96588.03
2023-01-17T11:25:38.915Z,96590.75
2023-01-17T11:28:24.130Z,96598.19
2023-01-17T11:30:55.725Z,96590.31
2023-01-17T11:33:45.343Z,96584.75
2023-01-17T11:36:20.843Z,96596.03
2023-01-17T11:39:03.573Z,96595.66
2023-01-17T11:41:36.616Z,96598.06
2023-01-17T11:44:25.884Z,96597.06
2023-01-17T11:47:19.153Z,96596.38
2023-01-17T11:49:51.073Z,96608.50
2023-01-17T11:52:26.274Z,96607.88
2023-01-17T11:54:57.847Z,96604.06
2023-01-17T11:57:30.271Z,96608.13
2023-01-17T12:00:13.248Z,96593.38
2023-01-17T12:03:13.993Z,96601.19
2023-01-17T12:05:56.129Z,96606.41
2023-01-17T12:08:39.480Z,96600.25
2023-01-17T12:11:16.735Z,96600.41
2023-01-17T12:14:00.726Z,96608.44
2023-01-17T12:16:42.117Z,96614.66
2023-01-17T12:19:38.088Z,96613.09
2023-01-17T12:22:24.711Z,96615.25
2023-01-17T12:25:21.847Z,96618.66
2023-01-17T12:28:00.285Z,96611.13
2023-01-17T12:30:46.773Z,96618.13
2023-01-17T12:33:27.935Z,96627.06
2023-01-17T12:36:01.085Z,96618.63
2023-01-17T12:38:35.079Z,96625.16
2023-01-17T12:41:10.290Z,96630.91
2023-01-17T12:43:44.521Z,96636.09
2023-01-17T12:46:21.397Z,96630.78
2023-01-17T12:48:58.044Z,96645.75
2023-01-17T12:51:32.284Z,96645.66
2023-01-17T12:54:07.960Z,96645.69
2023-01-17T12:56:43.691Z,96649.78
2023-01-17T12:59:17.960Z,96653.75
2023-01-17T13:01:57.830Z,96662.22
2023-01-17T13:04:38.457Z,96663.31
2023-01-17T13:07:24.268Z,96668.25
2023-01-17T13:10:02.265Z,96664.16
2023-01-17T13:12:37.245Z,96665.78
2023-01-17T13:15:19.019Z,96667.97
2023-01-17T13:17:51.268Z,96674.53
2023-01-17T13:20:31.893Z,96678.44
2023-01-17T13:23:15.083Z,96685.09
2023-01-17T13:25:50.732Z,96689.47
2023-01-17T13:28:30.737Z,96691.16
2023-01-17T13:31:16.130Z,96692.13
2023-01-17T13:34:00.788Z,96689.38
2023-01-17T13:36:50.813Z,96691.88
2023-01-17T13:39:34.809Z,96690.16
2023-01-17T13:42:13.191Z,96682.34
2023-01-17T13:44:42.760Z,96686.84
2023-01-17T13:47:41.006Z,96686.38
2023-01-17T13:50:40.781Z,96697.41
2023-01-17T13:53:40.506Z,96700.66
2023-01-17T13:56:16.843Z,96703.63
2023-01-17T13:59:02.804Z,96713.06
2023-01-17T14:01:53.938Z,96711.22
2023-01-17T14:04:24.710Z,96699.13
2023-01-17T14:07:01.229Z,96700.41
2023-01-17T14:09:39.956Z,96698.97
2023-01-17T14:12:29.704Z,96700.25
2023-01-17T14:15:01.124Z,96704.66
2023-01-17T14:18:08.283Z,96701.97
2023-01-17T14:20:49.846Z,96695.56
2023-01-17T14:23:28.258Z,96704.28
2023-01-17T14:26:01.765Z,96710.19
2023-01-17T14:28:36.956Z,96704.38
2023-01-17T14:31:14.084Z,96710.78
2023-01-17T14:33:44.508Z,96714.69
2023-01-17T14:36:22.199Z,96711.94
2023-01-17T14:38:51.963Z,96715.09
2023-01-17T14:41:24.423Z,96715.72
2023-01-17T14:43:58.447Z,96718.75
2023-01-17T14:46:31.124Z,96714.00
2023-01-17T14:49:06.561Z,96724.88
2023-01-17T14:51:38.522Z,96728.25
2023-01-17T14:54:21.120Z,96730.91
2023-01-17T14:56:50.667Z,96733.31
2023-01-17T14:59:24.503Z,96739.59
2023-01-17T15:02:07.255Z,96741.00
2023-01-17T15:04:39.883Z,96737.78
2023-01-17T15:07:15.316Z,96741.63
2023-01-17T15:09:47.171Z,96739.47
2023-01-17T15:12:17.101Z,96726.38
2023-01-17T15:14:49.505Z,96727.22
2023-01-17T15:17:24.503Z,96742.09
2023-01-17T15:19:58.412Z,96743.84
2023-01-17T15:22:29.853Z,96742.50
2023-01-17T15:25:00.342Z,96747.75
2023-01-17T15:27:30.689Z,96753.59
2023-01-17T15:30:04.276Z,96752.59
2023-01-17T15:32:33.985Z,96755.19
2023-01-17T15:35:06.255Z,96767.22
2023-01-17T15:37:39.875Z,96765.75
2023-01-17T15:40:19.093Z,96764.03
2023-01-17T15:42:51.697Z,96772.47
2023-01-17T15:45:36.099Z,96771.78
2023-01-17T15:48:40.605Z,96779.25
2023-01-17T15:51:11.035Z,96787.28
2023-01-17T15:53:42.421Z,96774.84
2023-01-17T15:56:23.805Z,96765.47
2023-01-17T15:58:53.357Z,96765.13
2023-01-17T16:01:31.120Z,96764.72
2023-01-17T16:04:00.756Z,96764.41
2023-01-17T16:06:45.719Z,96768.84
2023-01-17T16:09:23.618Z,96778.59
2023-01-17T16:11:53.213Z,96780.59
2023-01-17T16:14:25.423Z,96780.03
2023-01-17T16:16:59.267Z,96774.59
2023-01-17T16:19:28.826Z,96779.06
2023-01-17T16:22:02.751Z,96773.72
2023-01-17T16:24:33.484Z,96782.13
2023-01-17T16:27:04.513Z,96776.41
2023-01-17T16:29:34.224Z,96775.81
2023-01-17T16:32:08.755Z,96772.63
2023-01-17T16:34:38.511Z,96779.66
2023-01-17T16:37:08.176Z,96786.91
2023-01-17T16:39:37.713Z,96786.06
2023-01-17T16:42:07.655Z,96790.47
2023-01-17T16:44:39.984Z,96791.25
2023-01-17T16:47:12.490Z,96787.00
2023-01-17T16:49:42.075Z,96782.09
2023-01-17T16:52:11.843Z,96784.41
2023-01-17T16:54:41.380Z,96791.00
2023-01-17T16:57:10.894Z,96801.94
2023-01-17T16:59:50.440Z,96793.78
2023-01-17T17:02:23.216Z,96805.81
2023-01-17T17:04:53.096Z,96806.38
2023-01-17T17:07:22.605Z,96803.69
2023-01-17T17:09:52.135Z,96802.28
2023-01-17T17:12:21.650Z,96798.00
2023-01-17T17:14:51.163Z,96804.47
2023-01-17T17:17:23.286Z,96801.84
2023-01-17T17:19:52.803Z,96798.00
2023-01-17T17:22:22.341Z,96790.41
2023-01-17T17:24:51.845Z,96790.44
2023-01-17T17:27:26.299Z,96801.22
2023-01-17T17:29:56.125Z,96794.47
2023-01-17T17:32:28.196Z,96805.00
2023-01-17T17:34:57.779Z,96802.28
2023-01-17T17:37:29.089Z,96811.25
2023-01-17T17:39:58.719Z,96816.13
2023-01-17T17:42:28.349Z,96811.16
2023-01-17T17:44:57.898Z,96818.47
2023-01-17T17:47:30.579Z,96816.50
2023-01-17T17:50:00.224Z,96819.94
2023-01-17T17:52:30.260Z,96822.88
2023-01-17T17:54:59.813Z,96827.81
2023-01-17T17:57:29.385Z,96817.03
2023-01-17T17:59:59.840Z,96815.16
2023-01-17T18:02:31.948Z,96805.81
2023-01-17T18:05:02.359Z,96818.94
2023-01-17T18:07:33.448Z,96822.41
2023-01-17T18:10:03.791Z,96832.50
2023-01-17T18:12:33.333Z,96829.56
2023-01-17T18:15:02.882Z,96825.22
2023-01-17T18:17:35.337Z,96834.22
2023-01-17T18:20:07.451Z,96831.75
2023-01-17T18:22:37.470Z,96833.00
2023-01-17T18:25:08.054Z,96826.50
2023-01-17T18:27:38.769Z,96830.78
2023-01-17T18:30:12.584Z,96830.69
2023-01-17T18:32:44.727Z,96838.31
2023-01-17T18:35:14.308Z,96837.09
2023-01-17T18:37:43.854Z,96831.59
2023-01-17T18:40:14.222Z,96834.78
2023-01-17T18:42:43.788Z,96842.19
2023-01-17T18:45:13.767Z,96837.41
2023-01-17T18:47:45.878Z,96833.88
2023-01-17T18:50:15.468Z,96830.44
2023-01-17T18:52:44.975Z,96832.63
2023-01-17T18:55:14.489Z,96834.34
2023-01-17T18:57:43.999Z,96839.78
2023-01-17T19:00:16.456Z,96834.59
2023-01-17T19:02:51.179Z,96834.69
2023-01-17T19:05:21.742Z,96834.28
2023-01-17T19:07:51.290Z,96836.25
2023-01-17T19:10:21.113Z,96852.03
2023-01-17T19:12:50.629Z,96855.50
2023-01-17T19:15:20.136Z,96849.81
2023-01-17T19:17:52.316Z,96866.53
2023-01-17T19:20:21.845Z,96879.78
2023-01-17T19:22:51.882Z,96883.31
2023-01-17T19:25:22.976Z,96894.13
2023-01-17T19:27:52.514Z,96904.06
2023-01-17T19:30:22.762Z,96905.16
2023-01-17T19:32:56.031Z,96910.41
2023-01-17T19:35:25.857Z,96904.75
2023-01-17T19:37:56.071Z,96901.41
2023-01-17T19:40:26.368Z,96915.81
2023-01-17T19:42:56.136Z,96903.13
2023-01-17T19:45:25.954Z,96918.84
2023-01-17T19:47:58.259Z,96915.00
2023-01-17T19:50:27.933Z,96916.53
2023-01-17T19:52:57.435Z,96914.50
2023-01-17T19:55:27.074Z,96919.97
2023-01-17T19:57:57.322Z,96920.59
2023-01-17T20:00:30.369Z,96924.13
2023-01-17T20:03:02.692Z,96925.44
2023-01-17T20:05:32.353Z,96916.28
2023-01-17T20:08:02.179Z,96912.38
2023-01-17T20:10:32.149Z,96912.47
2023-01-17T20:13:02.069Z,96906.19
2023-01-17T20:15:31.884Z,96907.66
2023-01-17T20:18:04.986Z,96906.63
2023-01-17T20:20:41.357Z,96903.84
2023-01-17T20:23:15.680Z,96909.59
2023-01-17T20:25:45.663Z,96903.78
2023-01-17T20:28:15.207Z,96915.09
2023-01-17T20:30:45.660Z,96907.81
2023-01-17T20:33:18.802Z,96901.84
2023-01-17T20:35:53.472Z,96907.56
2023-01-17T20:38:31.158Z,96914.63
2023-01-17T20:41:00.746Z,96912.81
2023-01-17T20:43:30.313Z,96920.63
2023-01-17T20:45:59.880Z,96926.69
2023-01-17T20:48:32.280Z,96927.78
2023-01-17T20:51:05.872Z,96926.88
2023-01-17T20:53:37.173Z,96929.13
2023-01-17T20:56:08.000Z,96941.84
2023-01-17T20:58:38.564Z,96959.31
2023-01-17T21:01:10.282Z,96953.41
2023-01-17T21:03:42.637Z,96945.50
2023-01-17T21:06:14.416Z,96947.06
2023-01-17T21:08:46.219Z,96950.47
2023-01-17T21:11:18.758Z,96956.44
2023-01-17T21:13:48.802Z,96954.59
2023-01-17T21:16:20.390Z,96963.50
2023-01-17T21:18:54.041Z,96960.72
2023-01-17T21:21:25.385Z,96959.78
2023-01-17T21:23:57.470Z,96967.09
2023-01-17T21:26:29.205Z,96973.06
2023-01-17T21:29:01.602Z,96984.72
2023-01-17T21:31:34.848Z,96976.84
2023-01-17T21:34:09.135Z,96971.53
2023-01-17T21:36:40.605Z,96981.59
2023-01-17T21:39:15.741Z,96983.06
2023-01-17T21:41:48.218Z,96986.91
2023-01-17T21:44:21.865Z,96989.91
2023-01-17T21:46:55.945Z,96992.00
2023-01-17T21:49:28.548Z,96997.69
2023-01-17T21:52:10.661Z,97004.88
2023-01-17T21:54:52.764Z,97009.00
2023-01-17T21:57:36.537Z,97016.72
2023-01-17T22:00:08.074Z,97023.31
2023-01-17T22:02:44.112Z,97023.72
2023-01-17T22:05:18.574Z,97030.59
2023-01-17T22:08:00.730Z,97043.81
2023-01-17T22:10:30.456Z,97045.31
2023-01-17T22:13:00.063Z,97053.78
2023-01-17T22:15:29.665Z,97051.31
2023-01-17T22:17:59.616Z,97042.63
2023-01-17T22:20:32.420Z,97053.28
2023-01-17T22:23:01.938Z,97048.56
2023-01-17T22:25:31.452Z,97043.03
2023-01-17T22:28:00.970Z,97041.19
2023-01-17T22:30:30.476Z,97042.94
2023-01-17T22:33:00.553Z,97035.22
2023-01-17T22:35:33.765Z,97033.34
2023-01-17T22:38:03.286Z,97032.88
2023-01-17T22:40:38.261Z,97035.41
2023-01-17T22:43:07.865Z,97028.81
2023-01-17T22:45:37.379Z,97030.78
2023-01-17T22:48:07.919Z,97028.09
2023-01-17T22:50:40.083Z,97026.53
2023-01-17T22:53:10.451Z,97018.22
2023-01-17T22:55:40.024Z,97017.63
2023-01-17T22:58:09.527Z,97011.59
2023-01-17T23:00:39.020Z,97011.13
2023-01-17T23:03:08.650Z,97006.88
2023-01-17T23:05:46.520Z,97011.59
2023-01-17T23:08:16.028Z,97008.66
2023-01-17T23:10:58.086Z,97012.63
2023-01-17T23:13:27.984Z,97010.72
2023-01-17T23:16:10.179Z,97015.50
2023-01-17T23:18:52.266Z,97009.91
2023-01-17T23:21:44.595Z,97010.78
2023-01-17T23:24:14.528Z,97011.59
2023-01-17T23:27:04.070Z,97005.81
2023-01-17T23:29:31.018Z,97007.84
2023-01-17T23:32:00.557Z,96999.44
2023-01-17T23:34:30.166Z,97005.75
2023-01-17T23:37:02.276Z,97001.22
2023-01-17T23:39:31.828Z,96992.56
2023-01-17T23:42:13.874Z,96991.19
2023-01-17T23:44:43.401Z,96981.97
2023-01-17T23:47:12.901Z,96971.72
2023-01-17T23:49:43.545Z,96965.50
2023-01-17T23:52:15.625Z,96961.81
2023-01-17T23:54:45.359Z,96963.00
2023-01-17T23:57:14.918Z,96966.25
2023-01-17T23:59:44.919Z,96958.44
